Time;durP1;ratioP1;P1;durP2;ratioP2;P2;SDS_P1;SDS_P2;PMS_P1;PMS_P2;Temp;Humidity;BMP_temperature;BMP_pressure;BME280_temperature;BME280_humidity;BME280_pressure;Samples;Min_cycle;Max_cycle;Signal;HPM_P1;HPM_P2
2021/12/02 00:00:16;;;;;;;7.25;2.45;;;;;;;7.15;81.09;99831.00;5056434;28;20044;-64
2021/12/02 00:02:43;;;;;;;9.95;2.72;;;;;;;7.16;80.80;99827.94;5067454;28;20411;-64
2021/12/02 00:05:10;;;;;;;14.15;2.60;;;;;;;6.94;81.36;99830.66;5057574;28;20052;-65
2021/12/02 00:07:38;;;;;;;12.65;2.85;;;;;;;6.76;82.34;99837.94;5054727;28;20045;-64
2021/12/02 00:10:05;;;;;;;9.07;2.83;;;;;;;6.76;82.38;99843.41;5058219;28;20527;-64
2021/12/02 00:12:33;;;;;;;9.52;2.40;;;;;;;6.93;82.42;99840.00;5055068;28;20052;-64
2021/12/02 00:15:06;;;;;;;7.78;2.35;;;;;;;6.85;82.96;99832.53;5054745;28;20053;-65
2021/12/02 00:17:38;;;;;;;8.45;2.97;;;;;;;6.73;83.09;99826.78;5057326;28;20036;-64
2021/12/02 00:23:10;;;;;;;17.95;2.53;;;;;;;6.97;82.17;99827.31;5062698;28;20068;-64
2021/12/02 00:25:37;;;;;;;10.00;3.00;;;;;;;7.20;81.51;99836.34;5070207;28;20439;-64
2021/12/02 00:28:04;;;;;;;6.40;2.40;;;;;;;7.29;81.46;99839.91;5071947;28;20064;-63
2021/12/02 00:30:32;;;;;;;11.30;2.40;;;;;;;6.90;81.71;99848.03;5072487;28;20044;-65
2021/12/02 00:33:01;;;;;;;11.20;2.50;;;;;;;6.69;82.90;99851.22;5059640;28;20051;-64
2021/12/02 00:35:28;;;;;;;12.48;2.65;;;;;;;6.64;83.36;99854.09;5073551;28;20052;-64
2021/12/02 00:37:56;;;;;;;9.40;2.42;;;;;;;6.84;82.77;99853.63;5059030;28;20065;-64
2021/12/02 00:40:24;;;;;;;11.48;2.63;;;;;;;6.61;83.59;99856.63;5045460;28;20660;-64
2021/12/02 00:42:52;;;;;;;9.00;2.75;;;;;;;6.86;83.17;99864.25;5068254;28;20060;-63
2021/12/02 00:45:19;;;;;;;8.73;2.65;;;;;;;6.72;83.72;99858.84;5023809;28;20049;-64
2021/12/02 00:47:48;;;;;;;9.25;2.28;;;;;;;7.04;82.47;99857.81;5075362;28;20067;-66
2021/12/02 00:50:15;;;;;;;8.68;2.58;;;;;;;6.90;82.39;99857.06;5066219;28;20053;-64
2021/12/02 00:52:42;;;;;;;8.00;2.30;;;;;;;6.75;84.01;99873.81;5058434;28;20456;-64
2021/12/02 00:55:10;;;;;;;7.63;2.15;;;;;;;6.62;84.11;99864.56;5077106;28;20061;-65
2021/12/02 00:57:40;;;;;;;9.32;2.67;;;;;;;6.49;85.04;99864.56;5072883;28;20492;-65
2021/12/02 01:00:09;;;;;;;11.65;2.28;;;;;;;6.58;85.36;99876.41;5060169;28;20063;-64
2021/12/02 01:02:37;;;;;;;9.73;2.30;;;;;;;6.56;85.65;99873.97;5069271;28;20053;-64
2021/12/02 01:05:05;;;;;;;9.73;2.65;;;;;;;6.51;86.25;99876.81;5058078;28;20064;-63
2021/12/02 01:07:32;;;;;;;7.78;2.15;;;;;;;6.49;86.08;99873.59;5065215;28;20051;-63
2021/12/02 01:09:59;;;;;;;10.20;3.08;;;;;;;6.49;86.47;99878.22;5063433;28;20048;-65
2021/12/02 01:12:27;;;;;;;9.48;2.45;;;;;;;6.50;86.55;99888.88;5065132;28;20052;-64
2021/12/02 01:14:54;;;;;;;9.43;2.75;;;;;;;6.56;86.15;99886.84;5070504;28;20053;-64
2021/12/02 01:17:21;;;;;;;9.13;2.45;;;;;;;6.45;86.28;99890.94;5068741;28;20045;-63
2021/12/02 01:19:49;;;;;;;9.07;2.80;;;;;;;6.47;86.34;99900.44;5076188;28;20044;-64
2021/12/02 01:22:16;;;;;;;12.75;3.38;;;;;;;6.35;86.96;99894.69;5076772;28;20518;-65
2021/12/02 01:24:48;;;;;;;8.30;2.58;;;;;;;6.35;87.67;99894.69;5071158;28;20119;-64
2021/12/02 01:27:16;;;;;;;8.25;2.80;;;;;;;6.42;87.95;99894.25;5075974;28;20063;-63
2021/12/02 01:29:45;;;;;;;8.32;3.15;;;;;;;6.49;87.10;99897.38;5067817;28;20041;-64
2021/12/02 01:32:12;;;;;;;8.95;3.28;;;;;;;6.52;87.39;99899.53;5072902;28;20044;-63
2021/12/02 01:34:44;;;;;;;10.45;3.25;;;;;;;6.66;87.61;99906.56;5034955;28;20613;-63
2021/12/02 01:37:12;;;;;;;6.90;3.10;;;;;;;6.29;88.69;99904.13;5052869;28;20063;-64
2021/12/02 01:39:39;;;;;;;12.88;3.42;;;;;;;6.48;89.01;99904.81;5080909;28;20052;-64
2021/12/02 01:42:10;;;;;;;11.30;3.90;;;;;;;6.62;88.86;99902.84;5066797;28;20037;-69
2021/12/02 01:44:41;;;;;;;12.15;3.40;;;;;;;6.81;87.32;99906.25;5070823;28;20052;-64
2021/12/02 01:47:13;;;;;;;11.10;3.58;;;;;;;6.49;88.37;99922.81;5061549;28;20494;-64
2021/12/02 01:49:42;;;;;;;10.55;3.70;;;;;;;6.34;89.53;99917.69;5065377;28;20060;-63
2021/12/02 01:52:11;;;;;;;11.20;4.10;;;;;;;6.21;90.49;99936.81;5064671;28;20515;-63
2021/12/02 01:54:44;;;;;;;10.77;4.22;;;;;;;6.01;91.06;99943.50;5067278;28;20059;-63
2021/12/02 01:57:22;;;;;;;7.38;3.88;;;;;;;5.99;92.29;99925.75;5067937;28;20060;-64
2021/12/02 01:59:52;;;;;;;14.10;4.35;;;;;;;6.02;92.20;99944.28;5032023;28;20040;-65
2021/12/02 02:02:20;;;;;;;12.07;4.53;;;;;;;5.99;92.51;99947.63;5069555;28;20047;-63
2021/12/02 02:04:47;;;;;;;11.13;4.63;;;;;;;6.10;92.22;99949.84;5070088;28;20048;-64
2021/12/02 02:07:15;;;;;;;11.15;4.30;;;;;;;6.12;91.63;99955.03;5057833;28;20048;-64
2021/12/02 02:09:43;;;;;;;8.95;3.25;;;;;;;6.19;91.34;99956.25;5073560;28;20052;-64
2021/12/02 02:12:13;;;;;;;11.10;4.22;;;;;;;6.53;90.24;99950.38;5067864;28;20055;-64
2021/12/02 02:14:41;;;;;;;10.90;4.47;;;;;;;6.33;89.18;99959.81;5057260;28;20404;-63
2021/12/02 02:17:23;;;;;;;12.27;3.97;;;;;;;6.28;90.49;99957.16;5060048;28;20500;-64
2021/12/02 02:19:51;;;;;;;9.70;4.07;;;;;;;6.12;90.67;99969.50;5058041;28;20048;-64
2021/12/02 02:22:22;;;;;;;10.13;4.07;;;;;;;6.28;90.68;99970.03;5056463;28;20049;-65
2021/12/02 02:24:51;;;;;;;8.27;3.72;;;;;;;6.18;90.76;99979.25;5067170;28;20056;-64
2021/12/02 02:27:19;;;;;;;10.45;3.95;;;;;;;6.36;89.94;99981.06;5058534;28;20049;-64
2021/12/02 02:29:47;;;;;;;10.35;3.92;;;;;;;6.31;89.20;99980.38;5073154;28;20048;-63
2021/12/02 02:32:14;;;;;;;10.77;3.35;;;;;;;6.17;90.00;99980.34;5042680;28;20041;-64
2021/12/02 02:34:41;;;;;;;8.60;3.47;;;;;;;6.18;89.64;99983.91;5059140;28;20052;-63
2021/12/02 02:37:09;;;;;;;12.43;3.50;;;;;;;6.28;89.60;99991.91;5067539;28;20061;-64
2021/12/02 02:39:38;;;;;;;10.35;3.47;;;;;;;6.22;89.17;99995.88;5068789;28;20040;-64
2021/12/02 02:42:08;;;;;;;9.60;3.42;;;;;;;6.22;89.79;99993.94;5067330;28;20041;-64
2021/12/02 02:44:36;;;;;;;8.65;3.22;;;;;;;6.21;89.08;99989.56;5057178;28;20495;-64
2021/12/02 02:47:04;;;;;;;8.48;3.20;;;;;;;6.30;89.18;100000.63;5067961;28;20534;-64
2021/12/02 02:49:31;;;;;;;11.23;3.08;;;;;;;6.25;89.23;100003.44;5068801;28;20082;-64
2021/12/02 02:51:58;;;;;;;9.27;3.60;;;;;;;6.27;89.81;99996.59;5067882;28;20519;-64
2021/12/02 02:54:26;;;;;;;9.90;3.45;;;;;;;6.28;89.33;100002.84;5068905;28;20052;-63
2021/12/02 02:57:07;;;;;;;11.10;3.28;;;;;;;6.63;88.32;100007.63;5055996;28;20064;-64
2021/12/02 03:00:06;;;;;;;15.98;3.50;;;;;;;6.35;88.11;100001.34;5060013;28;20051;-65
2021/12/02 03:07:54;;;;;;;12.65;2.35;;;;;;;6.26;85.77;100005.88;5056389;28;20052;-64
2021/12/02 03:13:22;;;;;;;6.53;2.42;;;;;;;6.20;83.63;100020.78;5058263;28;20060;-63
2021/12/02 03:18:37;;;;;;;13.32;2.40;;;;;;;6.23;82.43;100020.16;5062568;28;20052;-64
2021/12/02 03:21:20;;;;;;;9.50;2.13;;;;;;;6.29;82.26;100040.03;5062534;28;20049;-65
2021/12/02 03:23:49;;;;;;;9.30;2.78;;;;;;;6.20;82.97;100026.25;5055666;28;20048;-63
2021/12/02 03:26:17;;;;;;;7.32;2.08;;;;;;;6.16;82.87;100033.41;5058327;28;20057;-63
2021/12/02 03:28:50;;;;;;;9.05;2.05;;;;;;;6.12;84.00;100035.13;5062017;28;20373;-64
2021/12/02 03:31:18;;;;;;;11.80;2.72;;;;;;;6.28;84.55;100041.94;5059466;28;20052;-64
2021/12/02 03:33:46;;;;;;;10.23;2.60;;;;;;;6.31;83.81;100041.34;5073426;28;20408;-65
2021/12/02 03:36:14;;;;;;;11.30;2.10;;;;;;;6.20;84.10;100044.56;5063162;28;20045;-64
2021/12/02 03:38:42;;;;;;;13.13;2.80;;;;;;;6.17;83.80;100039.72;5055267;28;20425;-64
2021/12/02 03:41:10;;;;;;;9.60;2.30;;;;;;;6.09;83.85;100051.31;5055616;28;20057;-64
2021/12/02 03:43:39;;;;;;;10.15;2.90;;;;;;;6.08;84.31;100064.19;5055016;28;20041;-64
2021/12/02 03:46:07;;;;;;;13.57;2.35;;;;;;;6.14;83.43;100048.50;5071765;28;20040;-64
2021/12/02 03:48:38;;;;;;;9.98;1.95;;;;;;;6.16;83.81;100047.09;5054903;28;20052;-65
2021/12/02 03:51:06;;;;;;;11.20;2.20;;;;;;;6.26;83.47;100057.84;5070949;28;20059;-64
2021/12/02 03:53:33;;;;;;;9.77;2.45;;;;;;;5.98;84.36;100053.41;5066383;28;20053;-65
2021/12/02 03:56:02;;;;;;;9.65;2.25;;;;;;;5.97;84.33;100060.00;5071899;28;20052;-63
2021/12/02 03:58:29;;;;;;;8.98;1.90;;;;;;;5.97;82.68;100061.91;5064230;28;20052;-64
2021/12/02 04:00:57;;;;;;;7.53;2.60;;;;;;;6.01;81.75;100069.22;5061176;28;20064;-65
2021/12/02 04:03:24;;;;;;;9.45;1.73;;;;;;;5.87;82.55;100083.94;5057853;28;20056;-65
2021/12/02 04:05:52;;;;;;;7.18;1.77;;;;;;;5.90;82.13;100086.91;5065557;28;20831;-64
2021/12/02 04:08:27;;;;;;;13.45;1.75;;;;;;;5.74;77.60;100075.38;5056626;28;20060;-64
2021/12/02 04:10:59;;;;;;;10.77;1.73;;;;;;;5.73;77.12;100083.88;5059975;28;20044;-63
2021/12/02 04:13:31;;;;;;;5.63;1.63;;;;;;;5.88;75.74;100066.44;5055850;28;20053;-64
2021/12/02 04:16:03;;;;;;;8.02;1.80;;;;;;;5.74;74.04;100080.00;5065122;28;20052;-64
2021/12/02 04:18:30;;;;;;;10.48;1.85;;;;;;;5.76;73.88;100083.25;5055167;28;20052;-64
2021/12/02 04:20:57;;;;;;;9.95;1.40;;;;;;;5.92;73.64;100064.72;5058981;28;20048;-64
2021/12/02 04:23:25;;;;;;;12.48;2.08;;;;;;;5.89;74.45;100073.53;5058347;28;20057;-64
2021/12/02 04:25:52;;;;;;;9.88;1.50;;;;;;;5.84;74.68;100065.44;5058390;28;20053;-64
2021/12/02 04:28:19;;;;;;;7.07;1.55;;;;;;;6.05;74.03;100092.09;5057768;28;20056;-64
2021/12/02 04:30:47;;;;;;;11.60;2.15;;;;;;;5.96;72.87;100080.25;5058502;28;20053;-63
2021/12/02 04:33:14;;;;;;;11.93;2.13;;;;;;;5.58;72.71;100104.03;5057909;28;20063;-64
2021/12/02 04:35:42;;;;;;;7.60;1.50;;;;;;;5.60;72.41;100095.53;5057712;28;20053;-64
2021/12/02 04:38:10;;;;;;;10.57;1.75;;;;;;;5.49;73.25;100096.81;5058553;28;20045;-64
2021/12/02 04:40:41;;;;;;;6.85;1.45;;;;;;;5.53;73.48;100103.28;5070390;28;20040;-64
2021/12/02 04:43:10;;;;;;;13.40;1.77;;;;;;;5.44;74.31;100110.53;5057214;28;20044;-63
2021/12/02 04:45:37;;;;;;;9.13;1.75;;;;;;;5.38;74.74;100120.72;5063914;28;20049;-65
2021/12/02 04:48:06;;;;;;;10.20;2.00;;;;;;;5.36;75.21;100125.66;5058324;28;20412;-64
2021/12/02 04:50:33;;;;;;;14.32;1.90;;;;;;;5.25;74.75;100117.88;5063177;28;20048;-64
2021/12/02 04:53:01;;;;;;;11.88;2.15;;;;;;;5.22;76.41;100126.66;5072943;28;20053;-64
2021/12/02 04:55:28;;;;;;;12.45;2.03;;;;;;;5.16;77.24;100134.09;5076314;28;20443;-63
2021/12/02 04:57:56;;;;;;;15.70;1.83;;;;;;;5.22;77.54;100130.19;5068862;28;20045;-64
2021/12/02 05:00:23;;;;;;;7.78;1.52;;;;;;;4.92;78.48;100135.19;5058209;28;20041;-63
2021/12/02 05:02:51;;;;;;;13.18;1.85;;;;;;;5.12;78.82;100145.88;5077206;28;20059;-64
2021/12/02 05:05:18;;;;;;;10.30;1.65;;;;;;;4.99;78.05;100149.31;5076083;28;20522;-63
2021/12/02 05:07:48;;;;;;;11.43;2.10;;;;;;;5.05;78.36;100148.16;5077154;28;20144;-63
2021/12/02 05:10:15;;;;;;;12.75;2.00;;;;;;;5.14;78.27;100141.78;5058474;28;20045;-64
2021/12/02 05:12:43;;;;;;;10.05;1.88;;;;;;;4.99;78.82;100155.59;5077493;28;20381;-64
2021/12/02 05:15:10;;;;;;;10.20;1.67;;;;;;;5.01;78.93;100155.28;5077067;28;20063;-63
2021/12/02 05:17:37;;;;;;;10.30;2.40;;;;;;;4.92;79.82;100149.66;5071432;28;20399;-64
2021/12/02 05:20:05;;;;;;;15.10;2.08;;;;;;;4.84;80.85;100157.66;5063360;28;20041;-64
2021/12/02 05:22:33;;;;;;;12.00;1.95;;;;;;;4.56;81.92;100160.16;5078026;28;20052;-63
2021/12/02 05:25:00;;;;;;;10.77;2.33;;;;;;;4.68;81.98;100158.91;5059122;28;20055;-63
2021/12/02 05:27:27;;;;;;;13.80;2.40;;;;;;;4.64;81.84;100166.06;5071070;28;20048;-64
2021/12/02 05:29:55;;;;;;;16.35;2.53;;;;;;;4.60;82.50;100161.16;5067354;28;20041;-65
2021/12/02 05:32:22;;;;;;;14.68;2.40;;;;;;;4.42;82.71;100161.09;5060910;28;20052;-67
2021/12/02 05:34:49;;;;;;;17.52;2.22;;;;;;;4.34;82.94;100167.16;5057652;28;20045;-63
2021/12/02 05:37:21;;;;;;;18.20;2.05;;;;;;;4.39;82.45;100167.91;5060399;28;20528;-63
2021/12/02 05:39:48;;;;;;;10.90;2.28;;;;;;;4.23;82.58;100162.88;5064762;28;20045;-63
2021/12/02 05:42:15;;;;;;;11.85;2.08;;;;;;;4.29;82.79;100181.63;5068636;28;20053;-64
2021/12/02 05:44:43;;;;;;;12.02;2.20;;;;;;;4.25;82.24;100180.56;5074092;28;20045;-64
2021/12/02 05:47:11;;;;;;;12.18;2.03;;;;;;;4.45;82.13;100180.41;5073636;28;20060;-63
2021/12/02 05:49:38;;;;;;;13.82;2.28;;;;;;;4.38;81.57;100171.75;5060223;28;20048;-64
2021/12/02 05:52:06;;;;;;;12.80;2.40;;;;;;;4.25;81.29;100172.41;5062110;28;20037;-64
2021/12/02 05:54:33;;;;;;;12.07;2.58;;;;;;;4.14;81.49;100168.16;5071163;28;20489;-64
2021/12/02 05:57:00;;;;;;;19.15;2.33;;;;;;;4.32;81.50;100164.69;5074052;28;20044;-64
2021/12/02 05:59:27;;;;;;;15.07;2.58;;;;;;;4.26;81.13;100168.59;5045112;28;20057;-64
2021/12/02 06:01:55;;;;;;;14.65;2.33;;;;;;;4.23;81.46;100182.78;5060202;28;20071;-63
2021/12/02 06:04:22;;;;;;;11.95;2.75;;;;;;;4.12;81.20;100180.41;5061625;28;20060;-63
2021/12/02 06:06:50;;;;;;;15.38;2.20;;;;;;;4.20;81.21;100185.28;5059714;28;20041;-64
2021/12/02 06:09:19;;;;;;;16.58;2.53;;;;;;;4.04;81.41;100190.03;5069488;28;20075;-64
2021/12/02 06:11:47;;;;;;;19.58;2.83;;;;;;;4.01;81.55;100192.50;5070670;28;20037;-64
2021/12/02 06:14:14;;;;;;;15.45;2.00;;;;;;;3.96;81.79;100196.06;5061862;28;20041;-64
2021/12/02 06:16:42;;;;;;;12.93;2.65;;;;;;;4.14;81.38;100198.13;5056645;28;20072;-64
2021/12/02 06:19:10;;;;;;;18.15;2.90;;;;;;;4.00;81.13;100194.41;5068250;28;20048;-63
2021/12/02 06:21:37;;;;;;;9.43;2.25;;;;;;;4.01;81.47;100196.00;5056870;28;20044;-64
2021/12/02 06:24:06;;;;;;;13.18;2.45;;;;;;;3.89;81.36;100205.66;5053300;28;20052;-64
2021/12/02 06:26:34;;;;;;;14.45;2.08;;;;;;;3.93;81.63;100204.81;5066018;28;20045;-64
2021/12/02 06:29:01;;;;;;;11.50;2.25;;;;;;;3.88;81.32;100193.13;5056608;28;20045;-64
2021/12/02 06:31:29;;;;;;;16.48;2.53;;;;;;;4.05;80.36;100197.09;5070275;28;20052;-63
2021/12/02 06:33:56;;;;;;;15.73;2.22;;;;;;;4.10;79.89;100204.41;5071349;28;20060;-63
2021/12/02 06:36:24;;;;;;;15.52;2.58;;;;;;;3.93;80.54;100198.53;5073453;28;20068;-63
2021/12/02 06:38:59;;;;;;;18.83;2.75;;;;;;;4.00;80.27;100194.41;5071265;28;20048;-64
2021/12/02 06:41:26;;;;;;;16.67;2.70;;;;;;;3.94;79.88;100208.34;5066288;28;20401;-64
2021/12/02 06:43:53;;;;;;;12.20;2.60;;;;;;;3.97;79.93;100205.88;5061907;28;20052;-64
2021/12/02 06:46:20;;;;;;;15.40;2.53;;;;;;;3.81;80.66;100215.22;5065667;28;20051;-64
2021/12/02 06:48:49;;;;;;;13.45;2.20;;;;;;;3.85;80.69;100210.84;5074029;28;20044;-63
2021/12/02 06:51:19;;;;;;;16.17;2.28;;;;;;;3.82;80.45;100211.41;5065268;28;20037;-63
2021/12/02 06:53:48;;;;;;;12.02;2.10;;;;;;;3.82;80.21;100225.00;5066836;28;20052;-64
2021/12/02 06:56:16;;;;;;;15.73;2.17;;;;;;;3.86;80.07;100238.88;5044514;28;20068;-64
2021/12/02 06:58:43;;;;;;;14.32;2.47;;;;;;;3.85;80.29;100246.28;5073806;28;20504;-63
2021/12/02 07:01:10;;;;;;;14.80;2.13;;;;;;;3.81;80.29;100252.53;5066372;28;20044;-64
2021/12/02 07:03:41;;;;;;;15.63;2.22;;;;;;;3.79;80.51;100249.28;5059740;28;20052;-64
2021/12/02 07:06:08;;;;;;;14.27;2.08;;;;;;;3.93;80.68;100263.91;5070566;28;20045;-63
2021/12/02 07:08:35;;;;;;;12.35;2.40;;;;;;;3.81;80.13;100261.53;5062108;28;20060;-64
2021/12/02 07:11:05;;;;;;;13.95;3.00;;;;;;;3.97;79.65;100267.72;5068252;28;20108;-63
2021/12/02 07:13:34;;;;;;;16.20;2.55;;;;;;;4.02;79.58;100279.41;5069257;28;20044;-63
2021/12/02 07:16:01;;;;;;;16.98;3.15;;;;;;;3.94;79.49;100277.25;5067016;28;20064;-65
2021/12/02 07:18:34;;;;;;;11.93;2.70;;;;;;;3.98;79.15;100275.59;5056710;28;20082;-64
2021/12/02 07:21:03;;;;;;;9.93;2.10;;;;;;;3.93;78.93;100285.72;5059216;28;20041;-64
2021/12/02 07:23:30;;;;;;;19.30;2.25;;;;;;;4.05;78.44;100289.75;5071119;28;20059;-65
2021/12/02 07:25:59;;;;;;;13.50;2.38;;;;;;;4.20;78.70;100288.84;5072137;28;20048;-64
2021/12/02 07:28:27;;;;;;;15.52;2.17;;;;;;;4.50;78.45;100296.81;5055109;28;20059;-64
2021/12/02 07:30:55;;;;;;;12.52;2.17;;;;;;;4.51;77.19;100296.53;5060108;28;20049;-63
2021/12/02 07:33:27;;;;;;;10.25;2.05;;;;;;;4.33;77.29;100301.84;5066009;28;20063;-64
2021/12/02 07:35:55;;;;;;;14.15;3.05;;;;;;;4.21;78.44;100310.38;5069753;28;20554;-63
2021/12/02 07:38:24;;;;;;;21.13;3.67;;;;;;;4.12;78.12;100319.41;5066084;28;20045;-64
2021/12/02 07:40:51;;;;;;;13.05;1.95;;;;;;;4.18;78.55;100293.75;5068338;28;20049;-62
2021/12/02 07:43:21;;;;;;;17.65;2.45;;;;;;;4.35;78.29;100289.56;5058575;28;20051;-63
2021/12/02 07:45:49;;;;;;;23.67;3.17;;;;;;;5.99;81.83;100289.31;5058009;28;20052;-61
2021/12/02 07:48:16;;;;;;;12.52;2.78;;;;;;;5.44;72.81;100279.88;5057164;28;20412;-63
2021/12/02 07:50:44;;;;;;;9.88;2.38;;;;;;;4.64;74.59;100283.34;5053233;28;20052;-63
2021/12/02 07:53:11;;;;;;;10.25;2.33;;;;;;;4.39;77.55;100279.69;5050201;28;20041;-65
2021/12/02 07:55:40;;;;;;;13.60;2.53;;;;;;;4.04;78.75;100284.56;5053482;28;20052;-64
2021/12/02 07:58:10;;;;;;;21.02;2.60;;;;;;;4.37;78.50;100290.09;5052509;28;20538;-66
2021/12/02 08:00:38;;;;;;;15.68;2.92;;;;;;;4.42;77.93;100300.16;5060659;28;20048;-66
2021/12/02 08:03:08;;;;;;;17.33;2.88;;;;;;;4.27;78.64;100300.25;5072865;28;20052;-65
2021/12/02 08:05:36;;;;;;;16.80;2.50;;;;;;;4.63;77.73;100295.34;5059672;28;20040;-65
2021/12/02 08:08:03;;;;;;;13.07;2.78;;;;;;;4.25;77.86;100300.50;5054734;28;20083;-65
2021/12/02 08:10:31;;;;;;;11.63;2.78;;;;;;;4.60;78.20;100294.81;5062118;28;20053;-65
2021/12/02 08:13:00;;;;;;;19.67;2.42;;;;;;;4.62;76.38;100301.91;5074125;28;20048;-65
2021/12/02 08:15:28;;;;;;;14.18;2.72;;;;;;;4.87;76.23;100307.97;5059007;28;20049;-65
2021/12/02 08:17:57;;;;;;;17.92;2.78;;;;;;;4.87;76.39;100309.88;5054639;28;20045;-65
2021/12/02 08:20:26;;;;;;;15.77;2.75;;;;;;;4.75;75.61;100318.44;5056611;28;20052;-65
2021/12/02 08:22:53;;;;;;;15.77;2.42;;;;;;;4.73;75.98;100331.56;5053878;28;20068;-65
2021/12/02 08:25:22;;;;;;;17.58;3.22;;;;;;;4.72;76.00;100321.75;5036825;28;20065;-65
2021/12/02 08:27:50;;;;;;;17.05;3.65;;;;;;;4.66;75.83;100335.69;5068586;28;20144;-66
2021/12/02 08:30:21;;;;;;;21.77;3.00;;;;;;;4.92;76.71;100332.50;5058162;28;20067;-65
2021/12/02 08:32:49;;;;;;;13.07;2.88;;;;;;;4.67;75.52;100338.16;5054348;28;20048;-66
2021/12/02 08:35:18;;;;;;;15.85;2.70;;;;;;;4.49;76.37;100345.09;5062479;28;20052;-65
2021/12/02 08:37:48;;;;;;;18.83;2.90;;;;;;;4.55;76.42;100348.56;5063153;28;20443;-65
2021/12/02 08:40:30;;;;;;;15.15;2.38;;;;;;;4.57;76.81;100352.66;5084012;28;20067;-65
2021/12/02 08:43:00;;;;;;;21.08;2.90;;;;;;;4.71;76.12;100343.88;5061950;28;20045;-65
2021/12/02 08:45:28;;;;;;;19.30;2.95;;;;;;;4.87;77.46;100356.25;5068136;28;20045;-65
2021/12/02 08:47:56;;;;;;;17.88;2.92;;;;;;;4.68;75.13;100349.88;5066428;28;20053;-66
2021/12/02 08:50:24;;;;;;;15.23;2.72;;;;;;;4.37;77.13;100358.25;5055112;28;20057;-65
2021/12/02 08:52:52;;;;;;;23.45;3.15;;;;;;;4.38;77.01;100362.59;5055729;28;20059;-66
2021/12/02 08:55:21;;;;;;;15.98;2.63;;;;;;;4.55;76.72;100362.22;5070331;28;20067;-66
2021/12/02 08:57:50;;;;;;;13.00;3.03;;;;;;;4.87;77.29;100368.00;5056458;28;20471;-64
2021/12/02 09:00:20;;;;;;;20.27;3.00;;;;;;;4.86;75.64;100365.56;5070128;28;20059;-67
2021/12/02 09:02:47;;;;;;;;;;;;;;;5.05;75.14;100366.50;5060742;28;20294;-66
2021/12/02 09:05:15;;;;;;;15.32;2.70;;;;;;;4.86;75.85;100371.84;5071227;28;20303;-65
2021/12/02 09:07:43;;;;;;;21.30;3.05;;;;;;;5.16;75.31;100370.78;5060217;28;20053;-65
2021/12/02 09:10:14;;;;;;;16.27;2.90;;;;;;;5.32;74.24;100383.19;5057874;28;20045;-66
2021/12/02 09:12:44;;;;;;;18.27;2.92;;;;;;;5.10;73.80;100383.66;5057410;28;20120;-66
2021/12/02 09:15:11;;;;;;;15.18;3.20;;;;;;;5.11;75.02;100387.22;5055930;28;20045;-65
2021/12/02 09:17:39;;;;;;;13.88;2.63;;;;;;;4.99;74.57;100393.03;5061069;28;20052;-66
2021/12/02 09:20:09;;;;;;;14.20;2.92;;;;;;;5.12;74.87;100394.28;5072768;28;20163;-65
2021/12/02 09:22:36;;;;;;;20.30;2.55;;;;;;;5.22;73.68;100399.66;5059088;28;20056;-66
2021/12/02 09:25:05;;;;;;;14.60;2.40;;;;;;;5.06;74.86;100400.88;5063066;28;20052;-65
2021/12/02 09:27:33;;;;;;;16.50;2.53;;;;;;;5.10;73.51;100404.69;5061658;28;20527;-65
2021/12/02 09:30:01;;;;;;;23.25;3.22;;;;;;;4.97;74.89;100392.47;5062070;28;20052;-65
2021/12/02 09:32:28;;;;;;;15.10;2.85;;;;;;;5.26;75.02;100398.00;5072930;28;20052;-65
2021/12/02 09:34:56;;;;;;;16.60;2.65;;;;;;;5.11;74.31;100393.47;5057922;28;20060;-65
2021/12/02 09:37:23;;;;;;;19.35;2.92;;;;;;;5.51;75.04;100403.22;5056119;28;20064;-66
2021/12/02 09:39:50;;;;;;;17.40;2.88;;;;;;;5.44;71.92;100400.81;5060292;28;20053;-64
2021/12/02 09:42:19;;;;;;;18.88;2.83;;;;;;;5.34;73.09;100411.84;5065926;28;20063;-65
2021/12/02 09:45:01;;;;;;;21.35;3.05;;;;;;;5.42;73.47;100405.75;5068652;28;20052;-66
2021/12/02 09:47:31;;;;;;;13.82;3.08;;;;;;;5.31;73.96;100401.50;5062195;28;20045;-64
2021/12/02 09:50:06;;;;;;;21.50;3.17;;;;;;;5.60;73.58;100415.97;5070375;28;20064;-64
2021/12/02 09:52:39;;;;;;;21.83;3.83;;;;;;;5.71;72.48;100422.16;5070989;28;20076;-64
2021/12/02 09:55:35;;;;;;;20.40;3.42;;;;;;;5.90;71.73;100417.63;5056793;28;20045;-65
2021/12/02 09:57:58;;;;;;;19.15;3.17;;;;;;;5.74;71.29;100419.66;5056889;28;20041;-65
2021/12/02 10:00:40;;;;;;;17.75;3.63;;;;;;;5.70;71.90;100428.75;5065682;28;20514;-65
2021/12/02 10:05:55;;;;;;;18.13;3.00;;;;;;;5.67;72.72;100429.28;5056390;28;20061;-65
2021/12/02 10:08:26;;;;;;;21.98;3.53;;;;;;;5.79;71.81;100431.66;5056596;28;20060;-65
2021/12/02 10:11:17;;;;;;;25.85;3.17;;;;;;;5.81;71.13;100435.72;5055475;28;20060;-68
2021/12/02 10:16:15;;;;;;;15.25;2.58;;;;;;;5.99;73.16;100431.47;5053963;28;20296;-66
2021/12/02 10:19:02;;;;;;;22.50;2.90;;;;;;;6.34;70.60;100425.59;5055456;28;20404;-63
2021/12/02 10:21:50;;;;;;;10.35;2.25;;;;;;;6.45;66.60;100438.81;5054833;28;20056;-65
2021/12/02 10:24:25;;;;;;;10.70;2.85;;;;;;;5.88;68.65;100435.41;5078240;28;20055;-67
2021/12/02 10:26:58;;;;;;;13.70;2.38;;;;;;;5.85;68.78;100427.78;5056894;28;20045;-66
2021/12/02 10:29:50;;;;;;;21.05;2.53;;;;;;;5.94;68.07;100426.88;5056048;28;20060;-67
2021/12/02 10:32:21;;;;;;;12.68;2.33;;;;;;;5.51;68.62;100422.34;5066484;28;20432;-65
2021/12/02 10:34:57;;;;;;;14.70;2.28;;;;;;;5.32;66.74;100432.34;5062781;28;20041;-65
2021/12/02 10:37:29;;;;;;;9.27;1.98;;;;;;;5.45;66.63;100428.97;5056533;28;20049;-67
2021/12/02 10:40:02;;;;;;;13.20;2.22;;;;;;;5.89;66.09;100424.19;5061458;28;20048;-65
2021/12/02 10:42:31;;;;;;;15.00;2.00;;;;;;;5.81;65.42;100424.78;5061659;28;20060;-68
2021/12/02 10:45:02;;;;;;;15.55;2.42;;;;;;;5.76;65.92;100430.28;5059296;28;20072;-67
2021/12/02 10:47:30;;;;;;;12.38;2.67;;;;;;;5.76;63.89;100430.28;5057027;28;20049;-67
2021/12/02 10:50:09;;;;;;;14.70;2.53;;;;;;;5.57;64.82;100416.56;5055496;28;20057;-65
2021/12/02 10:52:37;;;;;;;15.02;2.50;;;;;;;5.91;65.00;100410.25;5054140;28;20044;-67
2021/12/02 10:55:08;;;;;;;12.35;2.08;;;;;;;5.98;63.41;100411.50;5056157;28;20041;-66
2021/12/02 10:57:38;;;;;;;12.57;2.30;;;;;;;5.37;64.24;100413.19;5065703;28;20048;-65
2021/12/02 11:00:35;;;;;;;11.15;2.53;;;;;;;5.93;64.62;100413.50;5060497;28;20071;-66
2021/12/02 11:03:13;;;;;;;13.52;2.40;;;;;;;6.01;64.33;100429.25;5055920;28;20053;-67
2021/12/02 11:05:46;;;;;;;14.43;2.55;;;;;;;6.22;63.06;100406.88;5057352;28;20049;-67
2021/12/02 11:08:15;;;;;;;11.38;2.47;;;;;;;6.05;63.72;100402.97;5068671;28;20538;-66
2021/12/02 11:10:44;;;;;;;12.90;2.45;;;;;;;5.99;64.38;100417.78;5055308;28;20488;-65
2021/12/02 11:13:18;;;;;;;11.93;2.65;;;;;;;6.02;63.87;100414.47;5067972;28;20052;-66
2021/12/02 11:15:46;;;;;;;13.82;2.20;;;;;;;5.92;62.65;100403.66;5054325;28;20416;-66
2021/12/02 11:18:16;;;;;;;13.98;2.22;;;;;;;6.21;63.17;100407.13;5066308;28;20067;-65
2021/12/02 11:20:50;;;;;;;13.18;2.00;;;;;;;6.23;62.42;100408.47;5041091;28;20045;-65
2021/12/02 11:23:27;;;;;;;16.27;2.70;;;;;;;6.21;62.28;100393.47;5050726;28;20053;-64
2021/12/02 11:25:57;;;;;;;19.77;2.85;;;;;;;6.06;62.73;100397.22;5057030;28;20055;-65
2021/12/02 11:28:25;;;;;;;;;;;;;;;6.09;62.71;100390.31;5055918;28;20060;-65
2021/12/02 11:30:53;;;;;;;17.63;4.05;;;;;;;6.43;62.53;100393.75;5037883;28;19928;-65
2021/12/02 11:33:36;;;;;;;21.42;6.88;;;;;;;6.28;61.62;100389.28;5055171;28;20049;-65
2021/12/02 11:36:06;;;;;;;11.00;1.98;;;;;;;6.15;58.44;100406.41;5068646;28;20063;-65
2021/12/02 11:38:34;;;;;;;8.75;2.10;;;;;;;5.85;56.09;100387.59;5077317;28;20049;-67
2021/12/02 11:41:04;;;;;;;7.40;1.80;;;;;;;5.78;56.03;100389.84;5056161;28;20053;-67
2021/12/02 11:43:34;;;;;;;5.15;1.70;;;;;;;6.13;55.80;100386.72;5065290;28;20049;-66
2021/12/02 11:46:03;;;;;;;4.97;1.73;;;;;;;5.97;55.52;100384.47;5061196;28;20610;-66
2021/12/02 11:48:32;;;;;;;9.77;1.73;;;;;;;6.24;55.32;100377.28;5067169;28;20053;-66
2021/12/02 11:51:06;;;;;;;6.60;1.48;;;;;;;6.34;54.82;100371.69;5054910;28;20057;-65
2021/12/02 11:53:34;;;;;;;10.95;2.22;;;;;;;6.25;54.40;100398.06;5055373;28;20041;-67
2021/12/02 11:56:05;;;;;;;6.57;2.30;;;;;;;5.99;53.59;100426.81;5068847;28;20056;-65
2021/12/02 11:58:33;;;;;;;7.40;2.15;;;;;;;5.77;54.67;100382.72;5036167;28;20553;-65